Lake Tahoe Airport
KTVL : now visible

Airfield :











YOU CAN JOIN US ON...

 
LOGIN :

Register | Disclaimer

   EN    FR    IT 

 









Legend :    VFR   Marginal VFR   IFR   Intensive IFR   Very Intensive IFR
Visi :
Ceiling :
>= 8 km
>= 3000ft
5 to 8 km
1000 to 3000 ft
1500m to 5 km
500 to 1000 ft
800 to 1500m
200 to 500 ft
< 800m
< 200 ft
Symbols :   Thunderstorms  Fog  Heavy snow  Heavy precipitations  Wind > 20 kt







- Airport Elevation : 6264 ft
- IATA code : TVL


KTVL - Lake Tahoe

CURRENT METAR :
  • 220153Z AUTO 00000KT 10SM CLR 12/03 A3014 RMK AO2 SLP188 T01220033

EXPIRED METARs :
  • 220053Z AUTO 00000KT 10SM CLR 15/03 A3014 RMK AO2 SLP182 T01500028
  • 212353Z AUTO 01004KT 10SM CLR 17/01 A3014 RMK AO2 SLP177 T01720011 10178 20128 56005
  • 212253Z AUTO 01004KT 10SM CLR 17/02 A3015 RMK AO2 SLP180 T01670017

TAF KTVL
Valid from the 22 at 00:00 until the 23 at 00:00 UTC


212320Z 2200/2224 03006KT P6SM SKC
FM220200 VRB03KT P6SM SKC
FM222000 20008G16KT P6SM SCT250
No reported NOTAMs for that airfield.



MET'MAP, your aeronautical weather chart ! - Copyright ORBIFLY December 2007 - Disclaimer

ORBIFLY MET'MAP TEAM :

Programming & Development : Alexandra Zaïnal
Concept & Development : Baudouin d'Aumeries
Co-Development & Prog : Marc-Olivier Méhu
Technical & hardware support : Manuel Goepfert

Contact : metmap@orbifly.com




SOURCES & CREDITS :

   NOAA       Earth
Advisory